Air Navigation Services of Czech Republic
Airport: LKPD Updated:  15.09.2019 22:00:26  UTC
 METAR LKPD 15.09. 22:00 ...
METAR LKPD 152200Z 27007KT CAVOK 19/12 Q1019 RMK BLU=
 TAF LKPD 15.09. 17:00 ...
TAF LKPD 151700Z 1518/1618 27006KT CAVOK      BECMG 1606/1608 BKN035      TEMPO 1614/1618 RA=